Time;durP1;ratioP1;P1;durP2;ratioP2;P2;SDS_P1;SDS_P2;PMS_P1;PMS_P2;Temp;Humidity;BMP_temperature;BMP_pressure;BME280_temperature;BME280_humidity;BME280_pressure;Samples;Min_cycle;Max_cycle;Signal;HPM_P1;HPM_P2
2023/07/24 00:00:40;;;;;;;5.22;2.55;;;16.90;99.90;;;;;;5050836;28;20163;-61
2023/07/24 00:03:06;;;;;;;3.50;2.70;;;16.90;99.90;;;;;;5030331;28;20029;-61
2023/07/24 00:05:31;;;;;;;3.58;2.53;;;16.90;99.90;;;;;;5037599;28;20229;-61
2023/07/24 00:07:57;;;;;;;3.58;2.15;;;16.90;99.90;;;;;;5048643;28;20470;-61
2023/07/24 00:10:22;;;;;;;4.28;2.92;;;16.90;99.90;;;;;;5030590;28;20040;-61
2023/07/24 00:12:48;;;;;;;2.92;2.20;;;16.90;99.90;;;;;;5048802;28;20029;-60
2023/07/24 00:15:13;;;;;;;2.60;2.40;;;17.00;99.90;;;;;;5031684;28;20044;-60
2023/07/24 00:17:39;;;;;;;2.88;2.20;;;17.00;99.90;;;;;;5047317;28;20033;-60
2023/07/24 00:20:06;;;;;;;4.03;2.50;;;17.10;99.90;;;;;;5051277;28;20033;-61
2023/07/24 00:22:31;;;;;;;3.38;2.58;;;17.10;99.90;;;;;;5036009;28;20021;-60
2023/07/24 00:24:57;;;;;;;3.38;2.53;;;17.20;99.90;;;;;;5049775;28;20025;-60
2023/07/24 00:27:22;;;;;;;4.10;2.50;;;17.20;99.90;;;;;;5034798;28;20029;-60
2023/07/24 00:29:48;;;;;;;4.63;3.05;;;17.30;99.90;;;;;;5049455;28;20028;-59
2023/07/24 00:32:13;;;;;;;4.90;2.67;;;17.40;99.90;;;;;;5032888;28;20108;-60
2023/07/24 00:34:39;;;;;;;3.60;2.50;;;17.50;99.90;;;;;;5051098;28;20099;-60
2023/07/24 00:37:05;;;;;;;4.88;3.30;;;17.50;99.00;;;;;;5032154;28;20566;-61
2023/07/24 00:39:30;;;;;;;4.72;2.60;;;17.70;97.90;;;;;;5049988;28;20032;-61
2023/07/24 00:41:55;;;;;;;3.45;2.80;;;17.70;97.10;;;;;;5030904;28;20040;-59
2023/07/24 00:44:21;;;;;;;4.55;2.92;;;17.80;96.90;;;;;;5050872;28;20029;-59
2023/07/24 00:46:47;;;;;;;3.53;2.50;;;17.80;96.30;;;;;;5029682;28;20394;-59
2023/07/24 00:49:13;;;;;;;3.33;2.72;;;17.90;96.40;;;;;;5050586;28;20037;-60
2023/07/24 00:51:39;;;;;;;4.75;2.45;;;17.90;95.90;;;;;;5029963;28;20034;-60
2023/07/24 00:54:06;;;;;;;3.97;3.10;;;17.90;96.20;;;;;;5028938;28;20029;-60
2023/07/24 00:56:32;;;;;;;4.90;2.63;;;17.90;96.20;;;;;;5049850;28;20508;-61
2023/07/24 00:58:58;;;;;;;3.53;2.80;;;18.00;95.90;;;;;;5029110;28;20500;-60
2023/07/24 01:01:25;;;;;;;3.63;2.58;;;18.00;96.40;;;;;;5049748;28;20555;-60
2023/07/24 01:03:51;;;;;;;2.70;2.33;;;17.90;96.80;;;;;;5029147;28;20034;-60
2023/07/24 01:06:17;;;;;;;4.50;2.70;;;17.90;96.90;;;;;;5043832;28;20033;-60
2023/07/24 01:08:43;;;;;;;3.53;2.75;;;17.90;97.20;;;;;;5029326;28;20176;-60
2023/07/24 01:11:27;;;;;;;5.45;2.88;;;17.90;97.70;;;;;;5049561;28;20027;-60
2023/07/24 01:14:10;;;;;;;3.65;2.47;;;17.80;97.80;;;;;;5028453;28;20529;-60
2023/07/24 01:16:42;;;;;;;5.57;2.50;;;17.80;97.50;;;;;;5010298;28;20022;-60
2023/07/24 01:19:22;;;;;;;3.65;2.50;;;17.80;97.60;;;;;;5028408;28;20060;-60
2023/07/24 01:22:02;;;;;;;3.45;2.60;;;17.80;97.80;;;;;;5009483;28;20037;-59
2023/07/24 01:24:42;;;;;;;3.22;2.63;;;17.80;97.40;;;;;;5049910;28;20025;-61
2023/07/24 01:27:07;;;;;;;4.03;2.40;;;17.70;97.70;;;;;;5014670;28;20048;-60
2023/07/24 01:29:33;;;;;;;3.83;2.53;;;17.70;97.00;;;;;;5049526;28;20045;-59
2023/07/24 01:31:58;;;;;;;3.13;2.40;;;17.70;96.80;;;;;;5030480;28;20106;-60
2023/07/24 01:34:24;;;;;;;3.30;2.42;;;17.70;96.70;;;;;;5050023;28;20029;-60
2023/07/24 01:36:50;;;;;;;3.58;2.72;;;17.70;97.00;;;;;;5029069;28;20025;-60
2023/07/24 01:39:16;;;;;;;3.95;2.60;;;17.70;96.70;;;;;;5049529;28;20025;-60
2023/07/24 01:41:43;;;;;;;3.95;2.35;;;17.70;96.70;;;;;;5030246;28;20033;-60
2023/07/24 01:44:08;;;;;;;3.45;2.47;;;17.60;96.80;;;;;;5047544;28;20040;-60
2023/07/24 01:46:34;;;;;;;3.10;2.35;;;17.60;97.10;;;;;;5030059;28;20382;-60
2023/07/24 01:48:59;;;;;;;4.15;2.67;;;17.60;97.40;;;;;;5028493;28;20397;-60
2023/07/24 01:51:24;;;;;;;2.85;2.30;;;17.60;97.10;;;;;;5048982;28;20319;-60
2023/07/24 01:53:50;;;;;;;3.30;2.65;;;17.60;97.10;;;;;;5028339;28;20030;-60
2023/07/24 01:56:15;;;;;;;2.92;2.33;;;17.60;97.20;;;;;;5048481;28;20129;-60
2023/07/24 01:58:41;;;;;;;3.88;2.72;;;17.60;96.70;;;;;;5028148;28;20044;-60
2023/07/24 02:01:06;;;;;;;5.10;2.88;;;17.60;96.30;;;;;;5048570;28;20028;-60
2023/07/24 02:03:32;;;;;;;3.42;2.58;;;17.60;95.80;;;;;;5027845;28;20045;-61
2023/07/24 02:05:57;;;;;;;4.15;2.70;;;17.60;95.70;;;;;;5047948;28;20052;-59
2023/07/24 02:08:23;;;;;;;3.88;2.83;;;17.60;95.20;;;;;;5028037;28;20030;-60
2023/07/24 02:10:50;;;;;;;4.20;2.60;;;17.70;94.80;;;;;;5048536;28;20033;-60
2023/07/24 02:13:15;;;;;;;3.53;2.60;;;17.70;94.50;;;;;;5027470;28;20025;-61
2023/07/24 02:15:41;;;;;;;3.80;2.63;;;17.70;94.30;;;;;;5048236;28;20524;-61
2023/07/24 02:18:06;;;;;;;2.90;2.05;;;17.70;94.10;;;;;;5027985;28;20029;-61
2023/07/24 02:20:32;;;;;;;3.80;2.50;;;17.80;93.90;;;;;;5048265;28;20601;-60
2023/07/24 02:22:57;;;;;;;3.30;2.50;;;17.80;93.80;;;;;;5036342;28;20033;-61
2023/07/24 02:25:23;;;;;;;2.88;2.20;;;17.80;93.70;;;;;;5029504;28;20022;-61
2023/07/24 02:27:48;;;;;;;3.50;2.63;;;17.80;93.50;;;;;;5046315;28;20504;-60
2023/07/24 02:30:14;;;;;;;3.85;2.50;;;17.80;93.40;;;;;;5034019;28;20094;-61
2023/07/24 02:32:39;;;;;;;3.55;2.40;;;17.80;93.50;;;;;;5046886;28;20048;-61
2023/07/24 02:35:05;;;;;;;3.30;2.60;;;17.80;93.20;;;;;;5048897;28;20416;-61
2023/07/24 02:37:31;;;;;;;5.03;2.38;;;17.80;93.20;;;;;;5033459;28;20044;-61
2023/07/24 02:39:56;;;;;;;3.42;2.72;;;17.80;93.20;;;;;;5048864;28;20798;-61
2023/07/24 02:42:22;;;;;;;4.63;2.40;;;17.80;93.10;;;;;;5032433;28;20116;-60
2023/07/24 02:44:47;;;;;;;3.88;2.60;;;17.90;93.00;;;;;;5047158;28;20033;-61
2023/07/24 02:47:13;;;;;;;3.55;2.58;;;17.90;93.20;;;;;;5030942;28;20028;-61
2023/07/24 02:49:38;;;;;;;4.78;2.95;;;17.90;93.10;;;;;;5048900;28;20029;-61
2023/07/24 02:52:04;;;;;;;2.97;2.30;;;17.90;93.20;;;;;;5029971;28;20519;-60
2023/07/24 02:54:30;;;;;;;5.70;2.83;;;17.90;93.10;;;;;;5048577;28;20025;-60
2023/07/24 02:56:55;;;;;;;3.10;2.15;;;17.90;93.20;;;;;;5028514;28;20385;-60
2023/07/24 02:59:21;;;;;;;3.30;2.40;;;17.90;93.30;;;;;;5048580;28;20029;-61
2023/07/24 03:01:46;;;;;;;3.38;2.00;;;17.90;93.50;;;;;;5031516;28;20025;-60
2023/07/24 03:04:12;;;;;;;4.00;2.00;;;17.90;93.40;;;;;;5055028;28;20283;-60
2023/07/24 03:06:40;;;;;;;4.55;2.38;;;17.90;93.40;;;;;;5032377;28;20568;-61
2023/07/24 03:09:05;;;;;;;4.32;2.45;;;18.00;93.50;;;;;;5032308;28;20076;-60
2023/07/24 03:11:31;;;;;;;2.28;2.08;;;18.00;93.50;;;;;;5054388;28;20499;-60
2023/07/24 03:13:56;;;;;;;2.88;2.03;;;18.00;93.80;;;;;;5033755;28;20059;-60
2023/07/24 03:16:22;;;;;;;3.10;2.28;;;18.00;93.70;;;;;;5054526;28;20090;-63
2023/07/24 03:18:47;;;;;;;2.63;2.10;;;18.10;93.80;;;;;;5033791;28;20497;-63
2023/07/24 03:21:12;;;;;;;2.72;1.98;;;18.10;93.60;;;;;;5054248;28;20040;-63
2023/07/24 03:23:38;;;;;;;2.50;1.85;;;18.20;93.80;;;;;;5033475;28;20061;-64
2023/07/24 03:26:03;;;;;;;2.80;1.80;;;18.20;93.80;;;;;;5054300;28;20531;-63
2023/07/24 03:28:29;;;;;;;3.42;2.03;;;18.20;93.80;;;;;;5033885;28;20026;-62
2023/07/24 03:30:55;;;;;;;3.38;2.00;;;18.30;93.80;;;;;;5043047;28;20048;-64
2023/07/24 03:33:20;;;;;;;3.03;2.17;;;18.30;93.90;;;;;;5039439;28;20033;-64
2023/07/24 03:35:46;;;;;;;2.30;2.05;;;18.40;93.90;;;;;;5054148;28;20500;-63
2023/07/24 03:38:11;;;;;;;2.90;2.10;;;18.40;93.90;;;;;;5033508;28;20386;-64
2023/07/24 03:40:37;;;;;;;2.30;1.98;;;18.40;93.80;;;;;;5053825;28;20115;-63
2023/07/24 03:43:02;;;;;;;2.88;1.83;;;18.50;94.10;;;;;;5044070;28;20045;-63
2023/07/24 03:45:28;;;;;;;2.97;1.90;;;18.50;94.00;;;;;;5035340;28;20057;-63
2023/07/24 03:47:53;;;;;;;2.08;1.80;;;18.50;93.90;;;;;;5051778;28;20029;-64
2023/07/24 03:50:19;;;;;;;2.78;2.10;;;18.60;93.90;;;;;;5035262;28;20105;-64
2023/07/24 03:52:44;;;;;;;3.35;1.80;;;18.60;94.00;;;;;;5052075;28;20070;-64
2023/07/24 03:55:10;;;;;;;2.60;1.60;;;18.60;94.20;;;;;;5035140;28;20040;-63
2023/07/24 03:57:36;;;;;;;2.17;1.80;;;18.70;94.30;;;;;;5051763;28;20496;-63
2023/07/24 04:00:02;;;;;;;2.60;2.08;;;18.70;94.60;;;;;;5054679;28;20033;-63
2023/07/24 04:02:28;;;;;;;2.00;1.80;;;18.80;94.70;;;;;;5038946;28;20033;-63
2023/07/24 04:04:53;;;;;;;2.45;1.95;;;18.80;94.60;;;;;;5046574;28;20494;-63
2023/07/24 04:07:19;;;;;;;2.63;1.98;;;18.80;94.80;;;;;;5037341;28;20040;-63
2023/07/24 04:09:45;;;;;;;2.58;1.73;;;18.90;94.90;;;;;;5054675;28;20029;-63
2023/07/24 04:12:10;;;;;;;2.50;1.55;;;18.90;95.10;;;;;;5036011;28;20142;-63
2023/07/24 04:14:36;;;;;;;2.40;1.70;;;19.00;95.30;;;;;;5051237;28;20040;-63
2023/07/24 04:17:01;;;;;;;2.47;1.70;;;19.00;95.50;;;;;;5032254;28;20030;-64
2023/07/24 04:19:27;;;;;;;1.83;1.50;;;19.10;95.90;;;;;;5051372;28;20539;-63
2023/07/24 04:21:52;;;;;;;2.33;1.65;;;19.10;95.60;;;;;;5029696;28;20037;-63
2023/07/24 04:24:18;;;;;;;2.72;1.40;;;19.20;95.50;;;;;;5049958;28;20075;-63
2023/07/24 04:26:43;;;;;;;2.45;1.40;;;19.20;95.60;;;;;;5031688;28;20060;-64
2023/07/24 04:29:09;;;;;;;3.90;2.05;;;19.30;95.50;;;;;;5049056;28;20032;-63
2023/07/24 04:31:34;;;;;;;2.88;1.67;;;19.30;95.70;;;;;;5031159;28;20430;-63
2023/07/24 04:34:00;;;;;;;2.70;1.60;;;19.30;96.00;;;;;;5030270;28;20482;-55
2023/07/24 04:36:25;;;;;;;1.52;1.20;;;19.30;96.70;;;;;;5050261;28;20037;-64
2023/07/24 04:38:51;;;;;;;2.35;1.42;;;19.40;96.90;;;;;;5029731;28;20105;-61
2023/07/24 04:41:16;;;;;;;1.88;1.50;;;19.50;96.70;;;;;;5049987;28;20369;-61
2023/07/24 04:43:42;;;;;;;2.17;1.60;;;19.50;97.10;;;;;;5029569;28;20048;-60
2023/07/24 04:46:07;;;;;;;1.52;1.35;;;19.50;96.80;;;;;;5050308;28;20075;-60
2023/07/24 04:48:33;;;;;;;1.50;1.40;;;19.50;97.00;;;;;;5029503;28;20091;-60
2023/07/24 04:50:58;;;;;;;1.23;1.10;;;19.50;96.60;;;;;;5050087;28;20029;-60
2023/07/24 04:53:24;;;;;;;2.55;1.40;;;19.60;96.40;;;;;;5029544;28;20096;-60
2023/07/24 04:55:49;;;;;;;1.20;1.05;;;19.60;96.40;;;;;;5049793;28;20480;-60
2023/07/24 04:58:15;;;;;;;1.70;1.48;;;19.70;96.20;;;;;;5029060;28;20037;-60
2023/07/24 05:00:40;;;;;;;1.10;0.90;;;19.80;96.10;;;;;;5049945;28;20039;-60
2023/07/24 05:03:11;;;;;;;2.00;1.35;;;19.80;95.90;;;;;;5029460;28;20045;-60
2023/07/24 05:05:37;;;;;;;1.80;1.30;;;19.90;95.70;;;;;;5024877;28;20029;-60
2023/07/24 05:08:02;;;;;;;1.40;1.15;;;20.00;95.20;;;;;;5039718;28;20025;-60
2023/07/24 05:10:28;;;;;;;1.73;1.20;;;20.30;95.00;;;;;;5030990;28;20505;-60
2023/07/24 05:12:56;;;;;;;1.65;1.20;;;20.40;94.40;;;;;;5047537;28;20069;-60
2023/07/24 05:15:22;;;;;;;1.73;1.00;;;20.40;94.10;;;;;;5030516;28;20040;-60
2023/07/24 05:17:47;;;;;;;2.03;1.58;;;20.40;93.90;;;;;;5047657;28;20424;-60
2023/07/24 05:20:13;;;;;;;1.40;1.10;;;20.60;93.70;;;;;;5030532;28;20038;-60
2023/07/24 05:22:38;;;;;;;2.58;1.40;;;20.70;93.40;;;;;;5047316;28;20029;-60
2023/07/24 05:25:04;;;;;;;1.48;1.20;;;20.90;92.90;;;;;;5049669;28;20033;-60
2023/07/24 05:27:29;;;;;;;1.77;1.30;;;21.50;92.20;;;;;;5034634;28;20029;-60
2023/07/24 05:29:55;;;;;;;1.42;1.10;;;22.30;90.60;;;;;;5046847;28;20053;-60
2023/07/24 05:32:20;;;;;;;1.42;1.13;;;22.50;87.50;;;;;;5033033;28;20029;-61
2023/07/24 05:34:46;;;;;;;1.30;1.20;;;22.70;87.20;;;;;;5049839;28;20051;-60
2023/07/24 05:37:12;;;;;;;2.05;1.33;;;22.80;86.20;;;;;;5032159;28;20036;-60
2023/07/24 05:39:37;;;;;;;2.40;1.20;;;23.00;84.70;;;;;;5049721;28;20462;-60
2023/07/24 05:42:03;;;;;;;3.17;1.25;;;23.10;84.20;;;;;;5030881;28;20033;-60
2023/07/24 05:44:28;;;;;;;2.30;1.40;;;23.10;83.10;;;;;;5049569;28;20116;-58
2023/07/24 05:46:54;;;;;;;1.23;1.13;;;23.10;83.10;;;;;;5029501;28;20061;-57
2023/07/24 05:49:19;;;;;;;1.52;1.42;;;23.30;81.80;;;;;;5049665;28;20025;-58
2023/07/24 05:51:45;;;;;;;1.40;1.10;;;25.10;76.40;;;;;;5030117;28;20199;-58
2023/07/24 05:54:10;;;;;;;1.23;1.10;;;26.80;71.90;;;;;;5049509;28;20107;-58
2023/07/24 05:56:36;;;;;;;1.35;1.10;;;27.90;68.50;;;;;;5029852;28;20037;-58
2023/07/24 05:59:01;;;;;;;2.97;1.25;;;28.10;66.30;;;;;;5028191;28;20521;-58
2023/07/24 06:01:27;;;;;;;1.30;1.17;;;28.10;63.70;;;;;;5048510;28;20279;-58
2023/07/24 06:03:52;;;;;;;1.25;1.00;;;28.40;61.30;;;;;;5026934;28;20045;-58
2023/07/24 06:06:19;;;;;;;0.90;0.90;;;29.10;59.50;;;;;;5040702;28;20059;-59
2023/07/24 06:08:44;;;;;;;1.00;0.90;;;30.50;56.00;;;;;;5027867;28;20481;-58
2023/07/24 06:11:10;;;;;;;1.30;0.93;;;31.90;51.60;;;;;;5048653;28;20040;-59
2023/07/24 06:13:36;;;;;;;1.48;1.02;;;33.00;46.30;;;;;;5027862;28;20025;-59
2023/07/24 06:16:01;;;;;;;1.00;0.95;;;33.40;42.50;;;;;;5048604;28;20036;-59
2023/07/24 06:18:26;;;;;;;0.95;0.95;;;34.20;38.00;;;;;;5028196;28;20140;-59
2023/07/24 06:20:53;;;;;;;2.60;1.05;;;35.10;35.10;;;;;;5048464;28;20035;-59
2023/07/24 06:23:19;;;;;;;0.90;0.90;;;35.80;31.20;;;;;;5027708;28;20065;-59
2023/07/24 06:25:44;;;;;;;0.80;0.80;;;36.50;28.50;;;;;;5048455;28;20456;-59
2023/07/24 06:28:10;;;;;;;0.98;0.88;;;37.20;26.20;;;;;;5028080;28;20048;-59
2023/07/24 06:30:35;;;;;;;1.60;1.02;;;37.80;24.10;;;;;;5039740;28;20052;-58
2023/07/24 06:33:01;;;;;;;0.90;0.90;;;38.50;22.30;;;;;;5035926;28;20044;-59
2023/07/24 06:35:26;;;;;;;1.27;1.17;;;39.00;20.40;;;;;;5047739;28;20029;-59
2023/07/24 06:37:52;;;;;;;2.67;1.02;;;39.40;18.00;;;;;;5027369;28;20026;-59
2023/07/24 06:40:17;;;;;;;1.27;1.17;;;39.80;16.80;;;;;;5048139;28;20086;-59
2023/07/24 06:42:42;;;;;;;1.17;1.02;;;40.10;15.50;;;;;;5027748;28;20040;-59
2023/07/24 06:45:08;;;;;;;1.20;1.10;;;40.20;14.10;;;;;;5048043;28;20044;-59
2023/07/24 06:47:33;;;;;;;1.33;1.13;;;40.50;13.70;;;;;;5027503;28;20044;-59
2023/07/24 06:49:59;;;;;;;1.52;1.20;;;40.80;11.80;;;;;;5028963;28;20406;-59
2023/07/24 06:52:24;;;;;;;1.95;1.27;;;41.00;10.50;;;;;;5040661;28;20056;-59
2023/07/24 06:54:50;;;;;;;1.55;1.40;;;41.30;10.10;;;;;;5028958;28;20448;-59
2023/07/24 06:57:15;;;;;;;1.90;1.70;;;41.40;8.80;;;;;;5041725;28;20032;-59
2023/07/24 06:59:41;;;;;;;2.00;1.30;;;41.70;8.00;;;;;;5028896;28;20030;-59
2023/07/24 07:02:06;;;;;;;1.40;1.30;;;42.10;7.60;;;;;;5043101;28;20045;-59
2023/07/24 07:04:32;;;;;;;1.50;1.40;;;42.60;7.00;;;;;;5029752;28;20030;-59
2023/07/24 07:06:57;;;;;;;1.35;1.10;;;43.20;6.40;;;;;;5034205;28;20024;-59
2023/07/24 07:09:23;;;;;;;1.42;1.33;;;43.60;5.70;;;;;;5028799;28;20040;-59
2023/07/24 07:11:48;;;;;;;1.45;1.35;;;43.80;5.00;;;;;;5045544;28;20033;-59
2023/07/24 07:14:13;;;;;;;1.50;1.40;;;43.70;4.30;;;;;;5028728;28;20493;-61
2023/07/24 07:16:40;;;;;;;1.33;1.20;;;43.70;3.90;;;;;;5048027;28;20095;-60
2023/07/24 07:19:06;;;;;;;1.40;1.20;;;43.90;3.50;;;;;;5027203;28;20029;-61
2023/07/24 07:21:31;;;;;;;2.30;1.25;;;44.00;3.20;;;;;;5047643;28;20112;-60
2023/07/24 07:23:57;;;;;;;1.50;1.40;;;43.80;2.70;;;;;;5027182;28;20030;-61
2023/07/24 07:26:22;;;;;;;1.50;1.40;;;43.70;2.20;;;;;;5048100;28;20404;-60
2023/07/24 07:28:48;;;;;;;3.70;1.73;;;43.70;2.50;;;;;;5027219;28;20053;-61
2023/07/24 07:31:14;;;;;;;1.52;1.42;;;43.60;2.30;;;;;;5047293;28;20366;-61
2023/07/24 07:33:39;;;;;;;1.63;1.52;;;43.30;2.00;;;;;;5025764;28;20030;-60
2023/07/24 07:36:05;;;;;;;1.50;1.40;;;43.40;1.50;;;;;;5047746;28;20036;-60
2023/07/24 07:38:31;;;;;;;1.52;1.42;;;43.70;1.70;;;;;;5025913;28;20550;-60
2023/07/24 07:40:57;;;;;;;1.45;1.35;;;43.90;1.30;;;;;;5047434;28;20029;-61
2023/07/24 07:43:22;;;;;;;1.77;1.67;;;43.40;1.10;;;;;;5027057;28;20095;-60
2023/07/24 07:45:48;;;;;;;2.13;1.40;;;43.30;1.00;;;;;;5047585;28;20452;-61
2023/07/24 07:48:13;;;;;;;1.70;1.60;;;43.10;1.00;;;;;;5029509;28;20052;-61
2023/07/24 07:50:39;;;;;;;1.70;1.60;;;42.50;1.10;;;;;;5051328;28;20611;-61
2023/07/24 07:53:04;;;;;;;1.73;1.63;;;42.10;1.30;;;;;;5030809;28;20391;-61
2023/07/24 07:55:30;;;;;;;1.95;1.85;;;42.10;1.40;;;;;;5051212;28;20409;-60
2023/07/24 07:57:56;;;;;;;1.75;1.60;;;42.20;1.10;;;;;;5030271;28;20470;-61
2023/07/24 08:00:21;;;;;;;2.20;2.00;;;42.00;1.10;;;;;;5051099;28;20029;-59
2023/07/24 08:02:47;;;;;;;1.70;1.50;;;41.60;1.10;;;;;;5030609;28;20539;-60
2023/07/24 08:05:12;;;;;;;1.95;1.85;;;40.70;1.30;;;;;;5039656;28;20037;-60
2023/07/24 08:07:38;;;;;;;2.05;1.73;;;40.30;1.50;;;;;;5029908;28;20033;-60
2023/07/24 08:10:04;;;;;;;2.10;1.90;;;40.10;1.60;;;;;;5031835;28;20109;-61
2023/07/24 08:12:29;;;;;;;1.95;1.85;;;39.50;1.40;;;;;;5042892;28;20626;-60
2023/07/24 08:14:58;;;;;;;1.80;1.63;;;39.70;2.00;;;;;;5031659;28;20082;-60
2023/07/24 08:17:23;;;;;;;1.95;1.85;;;39.80;1.90;;;;;;5043518;28;20116;-60
2023/07/24 08:19:49;;;;;;;2.10;1.90;;;39.50;2.00;;;;;;5031636;28;20093;-60
2023/07/24 08:22:14;;;;;;;2.05;1.88;;;39.20;2.20;;;;;;5044375;28;20529;-60
2023/07/24 08:24:40;;;;;;;1.92;1.75;;;38.60;2.50;;;;;;5031444;28;20028;-60
2023/07/24 08:27:06;;;;;;;2.10;1.95;;;38.20;2.90;;;;;;5048866;28;20021;-60
2023/07/24 08:29:31;;;;;;;1.85;1.75;;;37.90;3.10;;;;;;5051196;28;20029;-60
2023/07/24 08:31:57;;;;;;;2.00;1.90;;;38.00;3.20;;;;;;5029799;28;20069;-60
2023/07/24 08:34:22;;;;;;;4.03;1.80;;;38.00;3.30;;;;;;5031442;28;20512;-60
2023/07/24 08:36:48;;;;;;;1.60;1.48;;;37.10;3.60;;;;;;5048133;28;20108;-59
2023/07/24 08:39:13;;;;;;;1.73;1.63;;;36.60;4.20;;;;;;5031210;28;20104;-60
2023/07/24 08:41:39;;;;;;;1.98;1.77;;;36.50;4.30;;;;;;5050218;28;20416;-60
2023/07/24 08:44:08;;;;;;;2.30;1.80;;;36.50;4.60;;;;;;5029883;28;20038;-61
2023/07/24 08:46:38;;;;;;;2.00;1.90;;;36.70;5.20;;;;;;5050769;28;20025;-60
2023/07/24 08:49:04;;;;;;;1.88;1.73;;;36.80;4.80;;;;;;5029573;28;20018;-60
2023/07/24 08:51:31;;;;;;;1.83;1.73;;;37.00;4.90;;;;;;5050346;28;20044;-60
2023/07/24 08:53:57;;;;;;;1.40;1.30;;;37.20;4.80;;;;;;5029255;28;20021;-60
2023/07/24 08:56:22;;;;;;;1.75;1.60;;;36.70;5.00;;;;;;5050192;28;20037;-59
2023/07/24 08:58:48;;;;;;;1.67;1.58;;;36.40;5.00;;;;;;5028677;28;20438;-60
2023/07/24 09:01:15;;;;;;;1.83;1.73;;;36.00;5.00;;;;;;5049886;28;20563;-60
2023/07/24 09:03:40;;;;;;;2.45;2.08;;;35.40;5.40;;;;;;5029317;28;20052;-60
2023/07/24 09:06:09;;;;;;;2.88;1.60;;;34.50;6.00;;;;;;5046511;28;20562;-60
2023/07/24 09:08:42;;;;;;;2.05;1.60;;;33.70;6.70;;;;;;5028758;28;20033;-60
2023/07/24 09:11:10;;;;;;;1.88;1.67;;;33.00;7.20;;;;;;5010966;28;20038;-60
2023/07/24 09:13:37;;;;;;;1.67;1.58;;;32.80;7.60;;;;;;5032325;28;20026;-59
2023/07/24 09:16:03;;;;;;;1.60;1.50;;;32.70;8.30;;;;;;5050137;28;20296;-60
2023/07/24 09:18:41;;;;;;;2.00;1.80;;;32.70;8.20;;;;;;5029151;28;20034;-59
2023/07/24 09:21:07;;;;;;;1.90;1.70;;;32.60;9.60;;;;;;5049743;28;20029;-60
2023/07/24 09:23:32;;;;;;;3.90;1.80;;;32.20;9.30;;;;;;5029007;28;20560;-60
2023/07/24 09:25:58;;;;;;;1.95;1.75;;;32.20;9.60;;;;;;5049500;28;20086;-60
2023/07/24 09:28:24;;;;;;;2.40;1.40;;;32.40;9.80;;;;;;5029210;28;20036;-59
2023/07/24 09:30:54;;;;;;;1.48;1.30;;;32.30;10.50;;;;;;5039309;28;20056;-60
2023/07/24 09:33:21;;;;;;;2.00;1.80;;;32.20;10.60;;;;;;5034662;28;20033;-60
2023/07/24 09:35:57;;;;;;;1.63;1.52;;;31.90;10.60;;;;;;5049712;28;20160;-60
2023/07/24 09:38:23;;;;;;;1.92;1.65;;;31.70;11.40;;;;;;5022054;28;20095;-60
2023/07/24 09:40:50;;;;;;;3.67;2.17;;;31.40;11.20;;;;;;5049247;28;20032;-60
2023/07/24 09:43:24;;;;;;;2.63;2.05;;;31.00;11.50;;;;;;5028433;28;20037;-60
2023/07/24 09:45:51;;;;;;;1.98;1.77;;;30.80;12.60;;;;;;5049648;28;20036;-60
2023/07/24 09:48:18;;;;;;;1.85;1.65;;;30.70;12.20;;;;;;5028393;28;20397;-60
2023/07/24 09:50:49;;;;;;;1.60;1.45;;;30.50;12.50;;;;;;5049338;28;20049;-60
2023/07/24 09:53:20;;;;;;;1.45;1.33;;;30.50;12.40;;;;;;5020440;28;20104;-60
2023/07/24 09:55:59;;;;;;;1.52;1.42;;;30.60;13.20;;;;;;5049296;28;20029;-60
2023/07/24 09:58:25;;;;;;;1.42;1.30;;;30.50;13.30;;;;;;5021831;28;20026;-59
2023/07/24 10:00:52;;;;;;;1.92;1.50;;;30.50;12.90;;;;;;5049021;28;20033;-59
2023/07/24 10:03:18;;;;;;;2.10;1.77;;;30.60;13.10;;;;;;5028164;28;20032;-60
2023/07/24 10:05:44;;;;;;;1.65;1.55;;;30.40;13.10;;;;;;5030653;28;20029;-60
2023/07/24 10:08:17;;;;;;;2.15;1.60;;;30.40;13.30;;;;;;5035404;28;20040;-60
2023/07/24 10:10:43;;;;;;;2.22;1.75;;;30.30;13.50;;;;;;5048707;28;20032;-60
2023/07/24 10:13:10;;;;;;;2.08;1.65;;;30.40;13.10;;;;;;5028337;28;20401;-60
2023/07/24 10:15:38;;;;;;;2.10;1.75;;;30.40;13.20;;;;;;5048679;28;20451;-60
2023/07/24 10:18:07;;;;;;;2.33;1.90;;;30.20;13.50;;;;;;5027981;28;20559;-59
2023/07/24 10:20:40;;;;;;;2.40;2.00;;;30.10;13.70;;;;;;5048968;28;20036;-59
2023/07/24 10:23:07;;;;;;;2.15;1.58;;;30.10;13.50;;;;;;5018971;28;20044;-60
2023/07/24 10:25:34;;;;;;;3.75;2.05;;;30.10;13.70;;;;;;5048412;28;20028;-60
2023/07/24 10:28:07;;;;;;;2.95;1.80;;;30.10;13.70;;;;;;5027549;28;20025;-59
2023/07/24 10:30:34;;;;;;;2.35;2.15;;;30.10;13.90;;;;;;5039707;28;20129;-59
2023/07/24 10:33:18;;;;;;;2.72;1.58;;;30.10;14.00;;;;;;5036427;28;20148;-60
2023/07/24 10:35:46;;;;;;;3.08;1.90;;;30.10;14.00;;;;;;5009501;28;20048;-59
2023/07/24 10:38:14;;;;;;;2.20;2.00;;;30.00;13.70;;;;;;5034546;28;20104;-58
2023/07/24 10:40:41;;;;;;;2.50;2.25;;;30.00;13.80;;;;;;5048664;28;20093;-60
2023/07/24 10:43:08;;;;;;;3.85;2.25;;;29.90;13.70;;;;;;5027526;28;20053;-56
2023/07/24 10:45:41;;;;;;;3.28;2.33;;;29.80;13.90;;;;;;5048399;28;20056;-56
2023/07/24 10:48:06;;;;;;;5.00;2.28;;;29.80;13.80;;;;;;5027678;28;20030;-57
2023/07/24 10:50:39;;;;;;;2.50;2.30;;;29.80;13.70;;;;;;5048131;28;20113;-55
2023/07/24 10:53:05;;;;;;;3.08;2.78;;;29.80;13.80;;;;;;5027559;28;20029;-56
2023/07/24 10:55:30;;;;;;;2.40;2.20;;;29.80;13.70;;;;;;5047885;28;20580;-54
2023/07/24 10:57:56;;;;;;;2.65;2.28;;;29.90;13.70;;;;;;5027367;28;20033;-55
2023/07/24 11:00:21;;;;;;;4.28;2.60;;;29.90;13.70;;;;;;5048165;28;20121;-53
2023/07/24 11:02:47;;;;;;;3.67;2.58;;;29.80;13.70;;;;;;5027681;28;20021;-55
2023/07/24 11:05:14;;;;;;;3.00;2.25;;;29.90;13.60;;;;;;5036897;28;20034;-60
2023/07/24 11:07:39;;;;;;;4.30;3.03;;;29.90;13.60;;;;;;5034290;28;20031;-60
2023/07/24 11:10:15;;;;;;;5.65;2.70;;;30.00;13.50;;;;;;5048844;28;20104;-60
2023/07/24 11:12:40;;;;;;;4.47;2.88;;;30.10;13.80;;;;;;5014766;28;20022;-61
2023/07/24 11:15:06;;;;;;;3.58;2.95;;;30.20;13.90;;;;;;5048035;28;20032;-60
2023/07/24 11:17:37;;;;;;;3.33;2.75;;;30.20;13.20;;;;;;5027243;28;20099;-60
2023/07/24 11:20:15;;;;;;;4.72;3.47;;;30.30;13.20;;;;;;5028806;28;20105;-60
2023/07/24 11:22:43;;;;;;;3.55;3.20;;;30.40;13.60;;;;;;5040591;28;20033;-60
2023/07/24 11:25:10;;;;;;;5.07;3.33;;;30.40;12.90;;;;;;5052078;28;20497;-60
2023/07/24 11:27:43;;;;;;;4.80;3.17;;;30.40;12.90;;;;;;5030541;28;20029;-60
2023/07/24 11:30:11;;;;;;;3.72;2.85;;;30.30;12.70;;;;;;5036696;28;20052;-60
2023/07/24 11:32:42;;;;;;;4.15;3.17;;;30.40;12.80;;;;;;5050320;28;20104;-60
2023/07/24 11:35:08;;;;;;;4.75;3.35;;;30.40;12.60;;;;;;5052603;28;20090;-60
2023/07/24 11:37:34;;;;;;;3.78;3.13;;;30.50;12.40;;;;;;5030724;28;20477;-61
2023/07/24 11:40:08;;;;;;;5.80;4.10;;;30.50;12.40;;;;;;5032467;28;20512;-60
2023/07/24 11:42:36;;;;;;;4.88;3.63;;;30.30;12.20;;;;;;5017218;28;20508;-60
2023/07/24 11:45:02;;;;;;;4.50;3.78;;;30.00;12.00;;;;;;5032388;28;20037;-60
2023/07/24 11:47:29;;;;;;;5.95;3.80;;;30.00;12.70;;;;;;5043564;28;20100;-60
2023/07/24 11:50:01;;;;;;;6.78;4.18;;;30.20;12.70;;;;;;5031907;28;20028;-60
2023/07/24 11:52:44;;;;;;;7.47;3.70;;;30.30;12.30;;;;;;5043968;28;20056;-60
2023/07/24 11:55:15;;;;;;;5.32;3.83;;;30.30;11.90;;;;;;5032114;28;20072;-60
2023/07/24 11:57:41;;;;;;;4.88;3.50;;;30.10;12.10;;;;;;5018058;28;20101;-60
2023/07/24 12:00:19;;;;;;;4.65;3.90;;;30.00;12.20;;;;;;5051138;28;20548;-60
2023/07/24 12:02:44;;;;;;;5.03;3.50;;;30.20;12.20;;;;;;5018567;28;20021;-60
2023/07/24 12:05:11;;;;;;;5.00;3.70;;;30.20;12.20;;;;;;5040530;28;20033;-60
2023/07/24 12:07:36;;;;;;;5.50;3.88;;;30.30;12.30;;;;;;5029928;28;20044;-60
2023/07/24 12:10:03;;;;;;;4.00;3.30;;;30.50;11.80;;;;;;5032099;28;20493;-60
2023/07/24 12:12:46;;;;;;;4.50;3.60;;;30.60;11.80;;;;;;5049174;28;20021;-61
2023/07/24 12:15:12;;;;;;;4.03;3.55;;;30.50;11.30;;;;;;5031932;28;20824;-60
2023/07/24 12:17:38;;;;;;;3.90;3.50;;;30.20;11.60;;;;;;5040482;28;20028;-61
2023/07/24 12:20:05;;;;;;;4.55;3.50;;;30.00;11.80;;;;;;5031824;28;20504;-60
2023/07/24 12:22:32;;;;;;;5.13;3.88;;;30.00;11.70;;;;;;5049062;28;20098;-59
2023/07/24 12:24:58;;;;;;;4.82;3.90;;;30.00;11.70;;;;;;5051303;28;20029;-60
2023/07/24 12:27:24;;;;;;;4.88;4.13;;;29.90;11.50;;;;;;5030029;28;20022;-60
2023/07/24 12:29:50;;;;;;;6.25;4.30;;;29.80;10.90;;;;;;5032825;28;20021;-60
2023/07/24 12:32:16;;;;;;;5.78;4.38;;;29.80;11.10;;;;;;5044888;28;20028;-60
2023/07/24 12:34:41;;;;;;;5.90;4.40;;;29.70;11.30;;;;;;5030127;28;20129;-60
2023/07/24 12:37:07;;;;;;;7.47;4.68;;;29.80;11.40;;;;;;5044155;28;20029;-60
2023/07/24 12:39:32;;;;;;;5.47;4.45;;;29.80;11.30;;;;;;5031161;28;20211;-59
2023/07/24 12:41:58;;;;;;;9.20;4.72;;;29.90;10.80;;;;;;5046543;28;20055;-60
2023/07/24 12:44:23;;;;;;;4.80;4.00;;;30.00;10.90;;;;;;5029925;28;20030;-61